| Date | Time | Temp. (oF) | Dew Point (oF) | Rel. Hum. (%) | Press. (in.) | Wind Dir. | Wind Speed (mph) | Hourly Rainfall (in.) |
|
|---|---|---|---|---|---|---|---|---|---|
| 1 | 05/03 | 00:00 | 73 | 70 | 93 | 29.77 | NNE | 7 | 0.00 |
| 2 | 05/02 | 23:00 | 75 | 72 | 93 | 29.75 | SSW | 3 | 0.00 |
| 3 | 05/02 | 22:00 | 76 | 72 | 88 | 29.78 | WSW | 0 | 0.02 |
| 4 | 05/02 | 21:00 | 80 | 71 | 75 | 29.77 | S | 3 | 0.00 |
| 5 | 05/02 | 20:00 | 82 | 70 | 69 | 29.78 | SW | 4 | 0.00 |
| 6 | 05/02 | 19:00 | 84 | 70 | 64 | 29.75 | SSW | 3 | 0.00 |
| 7 | 05/02 | 18:00 | 85 | 69 | 61 | 29.77 | SW | 4 | 0.00 |
| 8 | 05/02 | 17:00 | 86 | 69 | 58 | 29.75 | SW | 6 | 0.00 |
| 9 | 05/02 | 16:00 | 86 | 69 | 58 | 29.76 | SSW | 8 | 0.00 |
| 10 | 05/02 | 15:00 | 84 | 69 | 61 | 29.79 | NW | 3 | 0.00 |
| 11 | 05/02 | 14:00 | 86 | 68 | 56 | 29.81 | W | 5 | 0.00 |
| 12 | 05/02 | 13:00 | 86 | 68 | 57 | 29.80 | WNW | 3 | 0.00 |
| 13 | 05/02 | 12:00 | 85 | 67 | 57 | 29.81 | W | 2 | 0.00 |
| 14 | 05/02 | 11:00 | 84 | 70 | 64 | 29.81 | WSW | 4 | 0.00 |
| 15 | 05/02 | 10:00 | 79 | 70 | 76 | 29.80 | SSW | 4 | 0.00 |
| 16 | 05/02 | 09:00 | 76 | 69 | 80 | 29.80 | NE | 0 | 0.00 |
| 17 | 05/02 | 08:00 | 71 | 68 | 91 | 29.79 | S | 0 | 0.00 |
| 18 | 05/02 | 07:00 | 69 | 66 | 92 | 29.79 | SSW | 3 | 0.00 |
| 19 | 05/02 | 06:00 | 67 | 64 | 92 | 29.77 | SSE | 0 | 0.00 |
| 20 | 05/02 | 05:00 | 69 | 65 | 89 | 29.78 | NE | 0 | 0.00 |
| 21 | 05/02 | 04:00 | 70 | 65 | 85 | 29.75 | ENE | 0 | 0.00 |
| 22 | 05/02 | 03:00 | 70 | 64 | 83 | 29.77 | S | 2 | 0.00 |
| 23 | 05/02 | 02:00 | 70 | 63 | 80 | 29.77 | SW | 0 | 0.00 |
| 24 | 05/02 | 01:00 | 72 | 63 | 75 | 29.78 | SW | 0 | 0.00 |